createdAt,value
2018-05-26T00:01:59.925Z,10.83
2018-05-26T00:04:26.757Z,11.30
2018-05-26T00:06:53.598Z,11.30
2018-05-26T00:09:20.443Z,11.00
2018-05-26T00:11:47.283Z,10.87
2018-05-26T00:14:14.113Z,10.70
2018-05-26T00:16:40.228Z,10.63
2018-05-26T00:19:06.327Z,10.47
2018-05-26T00:21:32.430Z,12.27
2018-05-26T00:23:58.530Z,11.90
2018-05-26T00:26:25.386Z,11.77
2018-05-26T00:28:52.222Z,12.57
2018-05-26T00:31:19.069Z,15.77
2018-05-26T00:33:45.906Z,12.53
2018-05-26T00:36:12.767Z,13.80
2018-05-26T00:38:38.857Z,14.20
2018-05-26T00:41:04.964Z,12.97
2018-05-26T00:43:31.058Z,13.27
2018-05-26T00:45:57.166Z,13.97
2018-05-26T00:48:23.253Z,14.80
2018-05-26T00:53:59.195Z,15.40
2018-05-26T00:56:25.294Z,13.40
2018-05-26T00:58:51.381Z,14.30
2018-05-26T01:01:17.490Z,18.37
2018-05-26T01:03:43.579Z,17.17
2018-05-26T01:06:09.678Z,15.70
2018-05-26T01:08:36.513Z,13.77
2018-05-26T01:11:03.347Z,14.90
2018-05-26T01:13:29.437Z,14.80
2018-05-26T01:15:55.551Z,15.23
2018-05-26T01:18:21.646Z,15.40
2018-05-26T01:20:48.481Z,15.00
2018-05-26T01:23:15.329Z,16.67
2018-05-26T01:25:42.170Z,16.23
2018-05-26T01:28:09.018Z,16.87
2018-05-26T01:30:36.834Z,16.53
2018-05-26T01:33:02.926Z,16.67
2018-05-26T01:35:29.014Z,15.97
2018-05-26T01:37:55.115Z,15.53
2018-05-26T01:40:21.206Z,15.83
2018-05-26T01:42:47.297Z,16.03
2018-05-26T01:45:14.125Z,15.90
2018-05-26T01:47:40.218Z,23.03
2018-05-26T01:50:06.301Z,19.17
2018-05-26T01:52:33.155Z,16.63
2018-05-26T01:54:59.251Z,16.27
2018-05-26T01:57:25.359Z,15.87
2018-05-26T01:59:51.454Z,16.47
2018-05-26T02:02:17.561Z,17.77
2018-05-26T02:04:43.652Z,17.97
2018-05-26T02:07:09.758Z,17.57
2018-05-26T02:09:35.852Z,17.87
2018-05-26T02:12:01.951Z,17.13
2018-05-26T02:14:28.785Z,17.37
2018-05-26T02:16:55.627Z,17.97
2018-05-26T02:19:22.469Z,17.57
2018-05-26T02:21:49.296Z,18.90
2018-05-26T02:24:15.400Z,17.87
2018-05-26T02:26:41.503Z,17.97
2018-05-26T02:29:07.593Z,19.80
2018-05-26T02:31:34.416Z,19.87
2018-05-26T02:34:00.509Z,19.63
2018-05-26T02:36:26.602Z,19.13
2018-05-26T02:38:52.704Z,19.80
2018-05-26T02:41:18.793Z,19.90
2018-05-26T02:43:44.893Z,19.70
2018-05-26T02:46:10.981Z,21.30
2018-05-26T02:48:37.073Z,21.73
2018-05-26T02:51:03.157Z,24.23
2018-05-26T02:53:29.254Z,22.07
2018-05-26T02:55:55.355Z,22.77
2018-05-26T02:58:21.467Z,21.87
2018-05-26T03:00:47.555Z,21.63
2018-05-26T03:03:14.410Z,21.00
2018-05-26T03:05:46.714Z,20.93
2018-05-26T03:08:18.941Z,20.13
2018-05-26T03:10:51.835Z,20.17
2018-05-26T03:13:23.968Z,19.70
2018-05-26T03:15:51.895Z,19.47
2018-05-26T03:18:18.011Z,20.97
2018-05-26T03:20:44.097Z,19.77
2018-05-26T03:23:10.978Z,21.37
2018-05-26T03:25:37.781Z,21.03
2018-05-26T03:28:03.864Z,20.70
2018-05-26T03:30:29.955Z,21.17
2018-05-26T03:32:56.041Z,19.70
2018-05-26T03:35:22.149Z,21.47
2018-05-26T03:37:48.243Z,21.57
2018-05-26T03:40:14.347Z,22.03
2018-05-26T03:42:41.185Z,21.43
2018-05-26T03:45:08.018Z,21.90
2018-05-26T03:47:34.110Z,22.07
2018-05-26T03:50:00.211Z,21.70
2018-05-26T03:52:27.058Z,21.37
2018-05-26T03:58:40.293Z,19.87
2018-05-26T04:01:06.413Z,19.83
2018-05-26T04:03:32.495Z,19.90
2018-05-26T04:05:58.619Z,20.57
2018-05-26T04:08:24.701Z,20.57
2018-05-26T04:10:50.799Z,19.90
2018-05-26T04:13:17.642Z,21.07
2018-05-26T04:15:44.486Z,20.97
2018-05-26T04:18:11.321Z,21.03
2018-05-26T04:20:37.420Z,20.53
2018-05-26T04:23:03.504Z,20.57
2018-05-26T04:25:29.606Z,20.87
2018-05-26T04:27:56.439Z,21.30
2018-05-26T04:30:22.530Z,20.10
2018-05-26T04:32:48.621Z,21.23
2018-05-26T04:35:14.713Z,21.00
2018-05-26T04:37:40.797Z,20.43
2018-05-26T04:40:06.898Z,20.97
2018-05-26T04:42:32.990Z,22.00
2018-05-26T04:44:59.094Z,19.33
2018-05-26T04:47:25.190Z,18.53
2018-05-26T04:49:51.282Z,16.80
2018-05-26T04:52:18.122Z,13.83
2018-05-26T04:54:44.979Z,13.52
2018-05-26T04:57:11.082Z,12.20
2018-05-26T04:59:37.173Z,12.48
2018-05-26T05:02:03.274Z,10.68
2018-05-26T05:04:29.375Z,11.88
2018-05-26T05:06:56.227Z,11.68
2018-05-26T05:09:22.342Z,10.07
2018-05-26T05:11:49.190Z,9.10
2018-05-26T05:14:16.025Z,9.73
2018-05-26T05:16:42.871Z,9.70
2018-05-26T05:19:09.701Z,9.75
2018-05-26T05:21:35.802Z,10.43
2018-05-26T05:24:01.899Z,9.40
2018-05-26T05:26:28.007Z,8.80
2018-05-26T05:28:54.101Z,8.88
2018-05-26T05:31:20.199Z,9.80
2018-05-26T05:33:46.289Z,8.50
2018-05-26T05:36:13.434Z,9.63
2018-05-26T05:38:39.542Z,9.52
2018-05-26T05:41:06.390Z,11.10
2018-05-26T05:43:33.229Z,14.10
2018-05-26T05:46:00.081Z,10.50
2018-05-26T05:48:26.930Z,9.40
2018-05-26T05:50:53.028Z,8.68
2018-05-26T05:53:19.117Z,8.88
2018-05-26T05:55:45.206Z,8.52
2018-05-26T05:58:11.302Z,8.50
2018-05-26T06:00:37.402Z,9.98
2018-05-26T06:03:03.501Z,9.05
2018-05-26T06:05:29.595Z,8.70
2018-05-26T06:07:56.434Z,8.40
2018-05-26T06:10:23.262Z,8.23
2018-05-26T06:12:49.361Z,8.02
2018-05-26T06:15:15.511Z,8.35
2018-05-26T06:17:41.554Z,7.97
2018-05-26T06:20:08.422Z,8.32
2018-05-26T06:22:34.551Z,8.35
2018-05-26T06:25:00.641Z,8.30
2018-05-26T06:27:26.746Z,8.10
2018-05-26T06:29:53.582Z,8.68
2018-05-26T06:32:19.686Z,8.73
2018-05-26T06:34:45.790Z,8.05
2018-05-26T06:37:39.350Z,7.68
2018-05-26T06:40:05.406Z,10.32
2018-05-26T06:42:31.527Z,8.10
2018-05-26T06:44:57.621Z,8.30
2018-05-26T06:47:24.464Z,8.43
2018-05-26T06:49:51.297Z,7.68
2018-05-26T06:52:17.394Z,9.15
2018-05-26T06:54:43.495Z,8.20
2018-05-26T06:57:09.593Z,7.75
2018-05-26T06:59:35.698Z,11.12
2018-05-26T07:02:01.794Z,7.55
2018-05-26T07:04:27.886Z,9.20
2018-05-26T07:06:53.970Z,7.18
2018-05-26T07:09:20.083Z,8.10
2018-05-26T07:11:46.172Z,6.97
2018-05-26T07:14:12.280Z,12.07
2018-05-26T07:16:38.374Z,7.62
2018-05-26T07:19:04.487Z,7.32
2018-05-26T07:21:30.578Z,7.07
2018-05-26T07:23:56.689Z,7.68
2018-05-26T07:26:22.773Z,6.75
2018-05-26T07:28:48.870Z,6.30
2018-05-26T07:31:14.965Z,6.80
2018-05-26T07:33:41.112Z,7.90
2018-05-26T07:36:07.905Z,7.22
2018-05-26T07:38:34.759Z,6.50
2018-05-26T07:41:01.603Z,6.87
2018-05-26T07:43:28.457Z,6.80
2018-05-26T07:45:54.550Z,7.32
2018-05-26T07:48:20.706Z,7.85
2018-05-26T07:50:46.873Z,7.10
2018-05-26T07:53:13.682Z,8.35
2018-05-26T07:55:40.498Z,6.60
2018-05-26T07:58:07.338Z,8.05
2018-05-26T08:00:33.476Z,9.90
2018-05-26T08:02:59.559Z,7.00
2018-05-26T08:05:25.663Z,6.65
2018-05-26T08:07:51.754Z,11.32
2018-05-26T08:10:18.598Z,42.80
2018-05-26T08:12:44.706Z,9.57
2018-05-26T08:15:10.797Z,6.55
2018-05-26T08:17:36.888Z,9.15
2018-05-26T08:20:02.974Z,6.75
2018-05-26T08:22:29.069Z,6.95
2018-05-26T08:24:55.165Z,7.45
2018-05-26T08:27:21.313Z,8.95
2018-05-26T08:29:48.118Z,7.10
2018-05-26T08:32:14.962Z,7.43
2018-05-26T08:34:41.804Z,9.13
2018-05-26T08:37:07.898Z,8.50
2018-05-26T08:39:34.003Z,10.77
2018-05-26T08:42:00.102Z,6.32
2018-05-26T08:44:26.198Z,8.45
2018-05-26T08:46:53.042Z,8.05
2018-05-26T08:49:19.890Z,8.32
2018-05-26T08:51:50.418Z,7.22
2018-05-26T08:54:17.250Z,6.70
2018-05-26T08:56:43.345Z,7.40
2018-05-26T08:59:09.441Z,6.57
2018-05-26T09:01:35.566Z,6.75
2018-05-26T09:04:01.652Z,7.12
2018-05-26T09:06:27.794Z,5.62
2018-05-26T09:08:53.849Z,7.12
2018-05-26T09:11:19.997Z,6.37
2018-05-26T09:13:46.065Z,7.62
2018-05-26T09:16:12.905Z,6.47
2018-05-26T09:18:39.050Z,5.72
2018-05-26T09:21:05.106Z,7.65
2018-05-26T09:23:31.200Z,5.93
2018-05-26T09:25:58.038Z,6.62
2018-05-26T09:28:24.867Z,5.87
2018-05-26T09:30:50.966Z,6.53
2018-05-26T09:33:17.053Z,9.80
2018-05-26T09:35:43.150Z,26.55
2018-05-26T09:38:09.249Z,21.10
2018-05-26T09:40:35.349Z,6.18
2018-05-26T09:43:01.442Z,4.72
2018-05-26T09:45:28.282Z,5.45
2018-05-26T09:47:55.135Z,6.05
2018-05-26T09:50:21.973Z,5.40
2018-05-26T09:52:48.804Z,5.18
2018-05-26T09:55:15.635Z,4.70
2018-05-26T09:57:41.734Z,6.18
2018-05-26T10:00:07.826Z,5.18
2018-05-26T10:02:33.930Z,6.00
2018-05-26T10:05:00.772Z,4.53
2018-05-26T10:07:27.615Z,5.10
2018-05-26T10:09:54.438Z,6.55
2018-05-26T10:12:20.558Z,5.25
2018-05-26T10:14:46.650Z,6.68
2018-05-26T10:17:12.782Z,6.05
2018-05-26T10:19:38.873Z,6.07
2018-05-26T10:22:04.969Z,6.15
2018-05-26T10:24:31.062Z,5.30
2018-05-26T10:26:57.162Z,5.87
2018-05-26T10:29:23.264Z,4.93
2018-05-26T10:31:57.329Z,5.12
2018-05-26T10:34:23.471Z,8.20
2018-05-26T10:36:49.578Z,5.93
2018-05-26T10:39:15.709Z,5.68
2018-05-26T10:41:41.818Z,5.57
2018-05-26T10:44:07.916Z,8.65
2018-05-26T10:46:34.785Z,6.25
2018-05-26T10:49:00.878Z,7.25
2018-05-26T10:51:28.239Z,6.97
2018-05-26T10:53:54.345Z,7.68
2018-05-26T10:56:21.191Z,6.75
2018-05-26T10:58:47.298Z,6.47
2018-05-26T11:01:13.409Z,5.00
2018-05-26T11:03:39.518Z,5.15
2018-05-26T11:06:05.626Z,8.65
2018-05-26T11:08:31.726Z,9.30
2018-05-26T11:10:58.566Z,5.30
2018-05-26T11:13:25.419Z,5.10
2018-05-26T11:15:52.264Z,4.87
2018-05-26T11:18:19.118Z,5.55
2018-05-26T11:20:45.238Z,7.00
2018-05-26T11:23:12.092Z,10.15
2018-05-26T11:25:38.191Z,5.40
2018-05-26T11:28:05.034Z,6.43
2018-05-26T11:30:31.118Z,4.68
2018-05-26T11:32:57.219Z,8.48
2018-05-26T11:35:23.315Z,5.10
2018-05-26T11:37:50.149Z,7.00
2018-05-26T11:40:16.255Z,5.40
2018-05-26T11:42:42.363Z,4.82
2018-05-26T11:45:08.459Z,12.57
2018-05-26T11:47:34.566Z,10.27
2018-05-26T11:50:01.405Z,7.82
2018-05-26T11:52:28.261Z,6.72
2018-05-26T11:54:55.102Z,14.43
2018-05-26T11:57:21.942Z,5.50
2018-05-26T11:59:48.773Z,15.15
2018-05-26T12:02:15.620Z,6.60
2018-05-26T12:04:42.471Z,6.22
2018-05-26T12:07:09.306Z,4.62
2018-05-26T12:09:36.158Z,5.97
2018-05-26T12:12:02.989Z,4.85
2018-05-26T12:14:29.077Z,5.03
2018-05-26T12:16:55.175Z,5.60
2018-05-26T12:19:46.136Z,4.60
2018-05-26T12:22:12.232Z,5.75
2018-05-26T12:24:38.330Z,5.22
2018-05-26T12:27:04.431Z,5.28
2018-05-26T12:29:31.265Z,6.25
2018-05-26T12:31:57.365Z,5.87
2018-05-26T12:34:23.472Z,10.40
2018-05-26T12:36:49.565Z,5.00
2018-05-26T12:39:15.670Z,7.03
2018-05-26T12:41:42.505Z,5.20
2018-05-26T12:44:08.606Z,7.43
2018-05-26T12:46:34.705Z,8.95
2018-05-26T12:49:00.819Z,5.72
2018-05-26T12:51:26.910Z,5.43
2018-05-26T12:53:53.010Z,5.37
2018-05-26T12:56:19.102Z,5.35
2018-05-26T12:58:45.198Z,5.45
2018-05-26T13:01:12.037Z,5.87
2018-05-26T13:03:38.132Z,5.87
2018-05-26T13:06:04.247Z,5.62
2018-05-26T13:08:30.354Z,5.15
2018-05-26T13:10:56.449Z,8.25
2018-05-26T13:13:23.277Z,5.22
2018-05-26T13:15:49.385Z,4.70
2018-05-26T13:18:15.500Z,5.53
2018-05-26T13:20:41.609Z,5.80
2018-05-26T13:23:07.702Z,5.57
2018-05-26T13:25:34.543Z,7.95
2018-05-26T13:28:01.393Z,5.68
2018-05-26T13:30:27.505Z,5.45
2018-05-26T13:32:54.345Z,5.32
2018-05-26T13:35:21.296Z,5.10
2018-05-26T13:37:48.037Z,5.20
2018-05-26T13:40:14.877Z,5.62
2018-05-26T13:42:41.726Z,6.05
2018-05-26T13:45:08.575Z,5.55
2018-05-26T13:47:35.414Z,5.43
2018-05-26T13:50:02.272Z,5.82
2018-05-26T13:52:29.198Z,5.07
2018-05-26T13:54:56.101Z,5.65
2018-05-26T13:57:22.170Z,4.40
2018-05-26T13:59:49.199Z,6.12
2018-05-26T14:02:15.311Z,5.62
2018-05-26T14:04:41.417Z,5.25
2018-05-26T14:07:07.540Z,5.05
2018-05-26T14:09:33.654Z,5.35
2018-05-26T14:11:59.753Z,7.70
2018-05-26T14:14:26.585Z,5.62
2018-05-26T14:16:53.968Z,5.07
2018-05-26T14:19:20.066Z,5.35
2018-05-26T14:21:46.905Z,5.50
2018-05-26T14:24:12.996Z,6.10
2018-05-26T14:26:39.091Z,6.20
2018-05-26T14:29:05.182Z,5.82
2018-05-26T14:31:31.286Z,5.93
2018-05-26T14:33:57.374Z,7.55
2018-05-26T14:36:23.519Z,5.72
2018-05-26T14:38:50.863Z,5.80
2018-05-26T14:41:16.967Z,8.98
2018-05-26T14:43:43.059Z,8.43
2018-05-26T14:46:09.194Z,5.75
2018-05-26T14:48:36.030Z,10.50
2018-05-26T14:51:02.129Z,5.68
2018-05-26T14:53:28.222Z,6.25
2018-05-26T14:55:54.317Z,5.65
2018-05-26T14:58:21.172Z,5.43
2018-05-26T15:00:47.997Z,6.53
2018-05-26T15:03:14.109Z,6.50
2018-05-26T15:05:40.206Z,5.55
2018-05-26T15:08:06.338Z,14.10
2018-05-26T15:10:32.422Z,6.82
2018-05-26T15:12:58.570Z,7.28
2018-05-26T15:15:25.370Z,6.05
2018-05-26T15:17:51.478Z,6.93
2018-05-26T15:20:17.565Z,5.35
2018-05-26T15:22:43.683Z,8.18
2018-05-26T15:25:09.786Z,6.25
2018-05-26T15:27:36.630Z,5.40
2018-05-26T15:30:03.466Z,14.75
2018-05-26T15:32:30.317Z,5.97
2018-05-26T15:34:57.158Z,5.60
2018-05-26T15:37:24.062Z,5.43
2018-05-26T15:39:50.170Z,5.40
2018-05-26T15:42:16.293Z,7.97
2018-05-26T15:44:42.385Z,5.35
2018-05-26T15:47:08.499Z,5.65
2018-05-26T15:49:35.343Z,7.22
2018-05-26T15:52:02.173Z,6.68
2018-05-26T15:54:28.262Z,5.32
2018-05-26T15:56:54.357Z,5.68
2018-05-26T15:59:20.456Z,5.22
2018-05-26T16:01:47.304Z,5.82
2018-05-26T16:04:14.163Z,5.45
2018-05-26T16:06:40.989Z,6.47
2018-05-26T16:09:07.847Z,5.57
2018-05-26T16:11:34.683Z,5.30
2018-05-26T16:14:01.522Z,5.37
2018-05-26T16:16:28.345Z,7.00
2018-05-26T16:18:54.441Z,6.43
2018-05-26T16:21:20.542Z,6.90
2018-05-26T16:23:46.651Z,5.05
2018-05-26T16:26:14.529Z,5.80
2018-05-26T16:28:40.625Z,5.90
2018-05-26T16:31:06.710Z,5.25
2018-05-26T16:33:34.850Z,5.50
2018-05-26T16:36:01.690Z,5.60
2018-05-26T16:38:46.126Z,5.30
2018-05-26T16:41:18.557Z,5.97
2018-05-26T16:43:44.663Z,6.20
2018-05-26T16:46:10.749Z,6.00
2018-05-26T16:48:37.963Z,5.68
2018-05-26T16:51:10.669Z,6.05
2018-05-26T16:53:50.231Z,5.22
2018-05-26T16:56:22.665Z,5.75
2018-05-26T16:58:48.833Z,6.10
2018-05-26T17:01:14.874Z,5.82
2018-05-26T17:03:41.721Z,6.28
2018-05-26T17:06:08.556Z,5.82
2018-05-26T17:08:35.398Z,10.38
2018-05-26T17:11:02.228Z,8.45
2018-05-26T17:13:29.106Z,8.48
2018-05-26T17:15:55.717Z,5.45
2018-05-26T17:18:22.561Z,6.10
2018-05-26T17:20:48.656Z,10.48
2018-05-26T17:23:14.762Z,8.20
2018-05-26T17:25:40.859Z,8.18
2018-05-26T17:28:06.964Z,8.02
2018-05-26T17:30:33.810Z,7.32
2018-05-26T17:33:00.655Z,6.12
2018-05-26T17:35:27.493Z,5.40
2018-05-26T17:37:54.368Z,6.20
2018-05-26T17:40:20.478Z,6.30
2018-05-26T17:42:46.580Z,5.85
2018-05-26T17:45:12.690Z,5.60
2018-05-26T17:47:38.791Z,5.47
2018-05-26T17:50:04.886Z,5.32
2018-05-26T17:52:30.982Z,7.20
2018-05-26T17:54:57.087Z,7.20
2018-05-26T17:57:23.181Z,7.62
2018-05-26T17:59:49.286Z,8.60
2018-05-26T18:02:15.382Z,6.65
2018-05-26T18:04:41.477Z,8.23
2018-05-26T18:07:07.565Z,8.00
2018-05-26T18:09:33.665Z,9.60
2018-05-26T18:12:00.503Z,6.57
2018-05-26T18:14:26.594Z,6.00
2018-05-26T18:16:52.692Z,14.50
2018-05-26T18:19:18.789Z,6.85
2018-05-26T18:21:45.646Z,8.13
2018-05-26T18:24:12.482Z,7.97
2018-05-26T18:26:39.322Z,7.65
2018-05-26T18:29:06.149Z,6.60
2018-05-26T18:31:32.245Z,6.68
2018-05-26T18:34:16.635Z,6.00
2018-05-26T18:36:47.232Z,6.25
2018-05-26T18:39:13.420Z,8.00
2018-05-26T18:41:39.526Z,6.07
2018-05-26T18:44:06.366Z,7.00
2018-05-26T18:46:32.466Z,6.50
2018-05-26T18:48:58.552Z,6.10
2018-05-26T18:51:24.653Z,7.72
2018-05-26T18:53:51.486Z,6.68
2018-05-26T18:56:17.591Z,7.18
2018-05-26T18:58:54.238Z,8.88
2018-05-26T19:01:20.388Z,8.00
2018-05-26T19:03:46.497Z,10.48
2018-05-26T19:06:12.602Z,10.23
2018-05-26T19:08:38.698Z,10.93
2018-05-26T19:11:05.550Z,9.57
2018-05-26T19:13:42.977Z,9.40
2018-05-26T19:22:15.365Z,9.15
2018-05-26T19:24:41.453Z,9.60
2018-05-26T19:27:08.294Z,9.98
2018-05-26T19:29:34.390Z,10.15
2018-05-26T19:32:00.513Z,9.27
2018-05-26T19:34:26.602Z,8.43
2018-05-26T19:36:52.705Z,8.10
2018-05-26T19:39:19.542Z,7.78
2018-05-26T19:41:46.386Z,7.90
2018-05-26T19:44:12.469Z,9.15
2018-05-26T19:46:38.572Z,8.10
2018-05-26T19:49:04.661Z,8.68
2018-05-26T19:51:31.519Z,8.23
2018-05-26T19:53:58.357Z,7.68
2018-05-26T19:56:25.241Z,7.60
2018-05-26T19:58:51.329Z,8.38
2018-05-26T20:01:18.159Z,8.70
2018-05-26T20:03:44.262Z,7.23
2018-05-26T20:06:10.361Z,10.50
2018-05-26T20:08:36.466Z,8.80
2018-05-26T20:11:02.566Z,7.45
2018-05-26T20:13:28.675Z,8.87
2018-05-26T20:15:54.775Z,8.70
2018-05-26T20:24:44.773Z,7.47
2018-05-26T20:27:18.410Z,7.53
2018-05-26T20:29:44.502Z,8.67
2018-05-26T20:35:36.867Z,7.97
2018-05-26T20:38:17.713Z,8.13
2018-05-26T20:40:45.606Z,8.13
2018-05-26T20:43:20.025Z,8.80
2018-05-26T20:46:17.628Z,8.23
2018-05-26T20:48:44.490Z,9.73
2018-05-26T20:51:10.581Z,8.47
2018-05-26T20:53:36.693Z,9.90
2018-05-26T20:56:16.902Z,9.10
2018-05-26T20:58:43.011Z,11.47
2018-05-26T21:01:09.114Z,12.13
2018-05-26T21:03:52.601Z,9.77
2018-05-26T21:06:23.370Z,11.30
2018-05-26T21:18:09.728Z,10.00
2018-05-26T21:23:57.387Z,10.97
2018-05-26T21:26:27.183Z,10.67
2018-05-26T21:29:05.755Z,10.80
2018-05-26T21:31:31.855Z,10.60
2018-05-26T21:34:02.794Z,11.63
2018-05-26T21:36:28.891Z,11.10
2018-05-26T21:38:55.733Z,11.37
2018-05-26T21:50:32.010Z,15.87
2018-05-26T21:52:58.098Z,13.93
2018-05-26T21:55:24.193Z,16.33
2018-05-26T21:58:04.537Z,15.87
2018-05-26T22:00:42.106Z,14.53
2018-05-26T22:03:18.789Z,14.33
2018-05-26T22:08:45.834Z,15.33
2018-05-26T22:11:29.215Z,14.53
2018-05-26T22:13:55.318Z,15.63
2018-05-26T22:19:46.312Z,15.37
2018-05-26T22:22:14.470Z,16.00
2018-05-26T22:24:42.350Z,15.90
2018-05-26T22:27:08.448Z,16.27
2018-05-26T22:29:49.835Z,17.17
2018-05-26T22:32:16.703Z,17.13
2018-05-26T22:34:42.830Z,17.97
2018-05-26T22:40:22.359Z,16.67
2018-05-26T22:43:01.156Z,17.13
2018-05-26T22:45:32.764Z,16.27
2018-05-26T22:47:58.874Z,17.83
2018-05-26T22:53:36.269Z,16.37
2018-05-26T22:56:02.430Z,18.23
2018-05-26T22:58:28.521Z,19.63
2018-05-26T23:00:54.681Z,17.50
2018-05-26T23:03:20.765Z,18.37
2018-05-26T23:05:46.897Z,18.10
2018-05-26T23:08:12.979Z,18.30
2018-05-26T23:10:39.103Z,17.90
2018-05-26T23:13:05.211Z,18.00
2018-05-26T23:15:31.329Z,19.83
2018-05-26T23:17:58.182Z,19.80
2018-05-26T23:20:24.282Z,21.03
2018-05-26T23:22:51.110Z,20.87
2018-05-26T23:25:17.219Z,20.30
2018-05-26T23:27:43.315Z,20.03
2018-05-26T23:30:09.414Z,19.10
2018-05-26T23:32:36.255Z,19.10
2018-05-26T23:35:03.110Z,20.13
2018-05-26T23:37:29.217Z,20.60
2018-05-26T23:39:56.046Z,21.40
2018-05-26T23:42:22.174Z,21.83
2018-05-26T23:44:48.256Z,23.17
2018-05-26T23:47:14.377Z,22.73
2018-05-26T23:49:40.482Z,23.17
2018-05-26T23:52:06.587Z,23.70
2018-05-26T23:54:33.422Z,24.97
2018-05-26T23:56:59.522Z,27.10
2018-05-26T23:59:25.622Z,28.17
